sensor_id;sensor_type;location;lat;lon;timestamp;P1;durP1;ratioP1;P2;durP2;ratioP2
27893;SDS011;15240;50.812;4.792;2023-07-08T00:02:13;12.00;;;6.00;;
27893;SDS011;15240;50.812;4.792;2023-07-08T00:04:39;9.83;;;5.87;;
27893;SDS011;15240;50.812;4.792;2023-07-08T00:07:05;8.27;;;6.00;;
27893;SDS011;15240;50.812;4.792;2023-07-08T00:09:33;9.53;;;6.43;;
27893;SDS011;15240;50.812;4.792;2023-07-08T00:11:59;7.60;;;5.80;;
27893;SDS011;15240;50.812;4.792;2023-07-08T00:14:25;7.70;;;5.90;;
27893;SDS011;15240;50.812;4.792;2023-07-08T00:16:51;10.30;;;5.63;;
27893;SDS011;15240;50.812;4.792;2023-07-08T00:19:17;8.60;;;6.27;;
27893;SDS011;15240;50.812;4.792;2023-07-08T00:21:44;8.93;;;5.03;;
27893;SDS011;15240;50.812;4.792;2023-07-08T00:24:11;9.73;;;6.07;;
27893;SDS011;15240;50.812;4.792;2023-07-08T00:26:37;10.73;;;6.53;;
27893;SDS011;15240;50.812;4.792;2023-07-08T00:29:08;9.57;;;6.10;;
27893;SDS011;15240;50.812;4.792;2023-07-08T00:31:35;10.13;;;6.57;;
27893;SDS011;15240;50.812;4.792;2023-07-08T00:34:01;9.43;;;6.23;;
27893;SDS011;15240;50.812;4.792;2023-07-08T00:36:28;10.90;;;7.23;;
27893;SDS011;15240;50.812;4.792;2023-07-08T00:38:56;11.67;;;6.97;;
27893;SDS011;15240;50.812;4.792;2023-07-08T00:41:35;8.77;;;6.20;;
27893;SDS011;15240;50.812;4.792;2023-07-08T00:44:07;10.53;;;6.10;;
27893;SDS011;15240;50.812;4.792;2023-07-08T00:46:37;11.60;;;6.50;;
27893;SDS011;15240;50.812;4.792;2023-07-08T00:49:11;8.93;;;6.23;;
27893;SDS011;15240;50.812;4.792;2023-07-08T00:51:43;8.93;;;6.20;;
27893;SDS011;15240;50.812;4.792;2023-07-08T00:54:13;8.87;;;6.20;;
27893;SDS011;15240;50.812;4.792;2023-07-08T00:56:55;11.80;;;6.27;;
27893;SDS011;15240;50.812;4.792;2023-07-08T00:59:24;8.47;;;5.80;;
27893;SDS011;15240;50.812;4.792;2023-07-08T01:01:50;8.90;;;5.93;;
27893;SDS011;15240;50.812;4.792;2023-07-08T01:06:44;11.20;;;6.53;;
27893;SDS011;15240;50.812;4.792;2023-07-08T01:09:12;10.87;;;6.53;;
27893;SDS011;15240;50.812;4.792;2023-07-08T01:11:39;9.07;;;6.53;;
27893;SDS011;15240;50.812;4.792;2023-07-08T01:14:06;8.00;;;6.23;;
27893;SDS011;15240;50.812;4.792;2023-07-08T01:16:33;10.57;;;6.80;;
27893;SDS011;15240;50.812;4.792;2023-07-08T01:19:00;9.10;;;6.47;;
27893;SDS011;15240;50.812;4.792;2023-07-08T01:23:59;10.10;;;6.30;;
27893;SDS011;15240;50.812;4.792;2023-07-08T01:26:26;8.70;;;6.53;;
27893;SDS011;15240;50.812;4.792;2023-07-08T01:28:53;12.43;;;7.30;;
27893;SDS011;15240;50.812;4.792;2023-07-08T01:31:19;11.00;;;6.30;;
27893;SDS011;15240;50.812;4.792;2023-07-08T01:33:46;9.17;;;6.60;;
27893;SDS011;15240;50.812;4.792;2023-07-08T01:36:13;11.17;;;6.63;;
27893;SDS011;15240;50.812;4.792;2023-07-08T01:38:39;11.43;;;7.50;;
27893;SDS011;15240;50.812;4.792;2023-07-08T01:41:05;10.23;;;7.73;;
27893;SDS011;15240;50.812;4.792;2023-07-08T01:43:31;13.40;;;8.40;;
27893;SDS011;15240;50.812;4.792;2023-07-08T01:46:00;11.87;;;7.03;;
27893;SDS011;15240;50.812;4.792;2023-07-08T01:48:26;12.40;;;7.23;;
27893;SDS011;15240;50.812;4.792;2023-07-08T01:53:27;10.03;;;7.37;;
27893;SDS011;15240;50.812;4.792;2023-07-08T01:55:54;10.50;;;6.93;;
27893;SDS011;15240;50.812;4.792;2023-07-08T01:58:20;12.47;;;7.40;;
27893;SDS011;15240;50.812;4.792;2023-07-08T02:00:49;12.43;;;7.27;;
27893;SDS011;15240;50.812;4.792;2023-07-08T02:03:16;11.73;;;7.17;;
27893;SDS011;15240;50.812;4.792;2023-07-08T02:05:42;11.33;;;7.30;;
27893;SDS011;15240;50.812;4.792;2023-07-08T02:08:08;11.43;;;7.60;;
27893;SDS011;15240;50.812;4.792;2023-07-08T02:10:34;12.10;;;7.50;;
27893;SDS011;15240;50.812;4.792;2023-07-08T02:13:00;13.63;;;8.70;;
27893;SDS011;15240;50.812;4.792;2023-07-08T02:15:26;11.53;;;7.80;;
27893;SDS011;15240;50.812;4.792;2023-07-08T02:17:52;10.47;;;7.40;;
27893;SDS011;15240;50.812;4.792;2023-07-08T02:20:18;10.00;;;6.20;;
27893;SDS011;15240;50.812;4.792;2023-07-08T02:22:47;11.10;;;7.07;;
27893;SDS011;15240;50.812;4.792;2023-07-08T02:25:14;10.13;;;6.70;;
27893;SDS011;15240;50.812;4.792;2023-07-08T02:27:40;10.30;;;7.30;;
27893;SDS011;15240;50.812;4.792;2023-07-08T02:30:07;15.90;;;7.43;;
27893;SDS011;15240;50.812;4.792;2023-07-08T02:32:34;11.03;;;7.50;;
27893;SDS011;15240;50.812;4.792;2023-07-08T02:35:03;13.03;;;7.70;;
27893;SDS011;15240;50.812;4.792;2023-07-08T02:37:30;9.80;;;7.40;;
27893;SDS011;15240;50.812;4.792;2023-07-08T02:39:57;12.13;;;7.40;;
27893;SDS011;15240;50.812;4.792;2023-07-08T02:42:23;11.43;;;8.27;;
27893;SDS011;15240;50.812;4.792;2023-07-08T02:44:49;13.23;;;8.60;;
27893;SDS011;15240;50.812;4.792;2023-07-08T02:47:15;12.07;;;8.20;;
27893;SDS011;15240;50.812;4.792;2023-07-08T02:49:41;13.07;;;8.30;;
27893;SDS011;15240;50.812;4.792;2023-07-08T02:52:07;11.73;;;8.67;;
27893;SDS011;15240;50.812;4.792;2023-07-08T02:54:33;15.70;;;8.80;;
27893;SDS011;15240;50.812;4.792;2023-07-08T02:56:59;13.80;;;9.13;;
27893;SDS011;15240;50.812;4.792;2023-07-08T02:59:25;12.10;;;8.43;;
27893;SDS011;15240;50.812;4.792;2023-07-08T03:01:55;11.77;;;8.60;;
27893;SDS011;15240;50.812;4.792;2023-07-08T03:04:21;16.23;;;9.20;;
27893;SDS011;15240;50.812;4.792;2023-07-08T03:06:49;12.17;;;8.53;;
27893;SDS011;15240;50.812;4.792;2023-07-08T03:09:15;13.23;;;8.47;;
27893;SDS011;15240;50.812;4.792;2023-07-08T03:11:42;13.73;;;8.37;;
27893;SDS011;15240;50.812;4.792;2023-07-08T03:14:08;13.73;;;8.37;;
27893;SDS011;15240;50.812;4.792;2023-07-08T03:16:35;13.53;;;9.50;;
27893;SDS011;15240;50.812;4.792;2023-07-08T03:19:01;14.03;;;9.33;;
27893;SDS011;15240;50.812;4.792;2023-07-08T03:21:27;12.43;;;7.77;;
27893;SDS011;15240;50.812;4.792;2023-07-08T03:23:54;13.37;;;8.50;;
27893;SDS011;15240;50.812;4.792;2023-07-08T03:26:22;10.60;;;8.00;;
27893;SDS011;15240;50.812;4.792;2023-07-08T03:28:49;12.90;;;8.57;;
27893;SDS011;15240;50.812;4.792;2023-07-08T03:31:15;13.10;;;8.70;;
27893;SDS011;15240;50.812;4.792;2023-07-08T03:33:41;11.13;;;8.77;;
27893;SDS011;15240;50.812;4.792;2023-07-08T03:36:09;11.90;;;8.80;;
27893;SDS011;15240;50.812;4.792;2023-07-08T03:38:37;13.67;;;7.80;;
27893;SDS011;15240;50.812;4.792;2023-07-08T03:41:03;12.33;;;8.87;;
27893;SDS011;15240;50.812;4.792;2023-07-08T03:43:29;12.40;;;9.03;;
27893;SDS011;15240;50.812;4.792;2023-07-08T03:45:56;12.77;;;8.00;;
27893;SDS011;15240;50.812;4.792;2023-07-08T03:48:22;12.00;;;8.60;;
27893;SDS011;15240;50.812;4.792;2023-07-08T03:50:48;12.80;;;8.40;;
27893;SDS011;15240;50.812;4.792;2023-07-08T03:53:14;11.07;;;7.67;;
27893;SDS011;15240;50.812;4.792;2023-07-08T03:55:40;10.40;;;7.67;;
27893;SDS011;15240;50.812;4.792;2023-07-08T03:58:06;12.00;;;8.07;;
27893;SDS011;15240;50.812;4.792;2023-07-08T04:00:33;11.17;;;7.70;;
27893;SDS011;15240;50.812;4.792;2023-07-08T04:02:59;11.43;;;7.40;;
27893;SDS011;15240;50.812;4.792;2023-07-08T04:05:25;10.83;;;7.47;;
27893;SDS011;15240;50.812;4.792;2023-07-08T04:07:51;13.23;;;8.60;;
27893;SDS011;15240;50.812;4.792;2023-07-08T04:10:17;14.63;;;8.20;;
27893;SDS011;15240;50.812;4.792;2023-07-08T04:12:43;11.30;;;7.80;;
27893;SDS011;15240;50.812;4.792;2023-07-08T04:15:10;15.23;;;8.53;;
27893;SDS011;15240;50.812;4.792;2023-07-08T04:17:46;13.43;;;7.73;;
27893;SDS011;15240;50.812;4.792;2023-07-08T04:20:14;11.93;;;7.60;;
27893;SDS011;15240;50.812;4.792;2023-07-08T04:22:40;12.47;;;7.60;;
27893;SDS011;15240;50.812;4.792;2023-07-08T04:25:07;16.37;;;8.57;;
27893;SDS011;15240;50.812;4.792;2023-07-08T04:27:33;12.07;;;7.90;;
27893;SDS011;15240;50.812;4.792;2023-07-08T04:29:59;14.77;;;8.53;;
27893;SDS011;15240;50.812;4.792;2023-07-08T04:32:25;13.87;;;8.43;;
27893;SDS011;15240;50.812;4.792;2023-07-08T04:34:51;12.27;;;7.60;;
27893;SDS011;15240;50.812;4.792;2023-07-08T04:37:18;11.63;;;8.30;;
27893;SDS011;15240;50.812;4.792;2023-07-08T04:39:44;11.40;;;7.20;;
27893;SDS011;15240;50.812;4.792;2023-07-08T04:42:11;10.90;;;7.03;;
27893;SDS011;15240;50.812;4.792;2023-07-08T04:44:42;9.87;;;6.80;;
27893;SDS011;15240;50.812;4.792;2023-07-08T04:47:08;11.23;;;6.80;;
27893;SDS011;15240;50.812;4.792;2023-07-08T04:49:36;14.57;;;7.73;;
27893;SDS011;15240;50.812;4.792;2023-07-08T04:52:02;11.50;;;7.97;;
27893;SDS011;15240;50.812;4.792;2023-07-08T04:54:28;11.30;;;7.37;;
27893;SDS011;15240;50.812;4.792;2023-07-08T04:56:54;12.10;;;8.73;;
27893;SDS011;15240;50.812;4.792;2023-07-08T04:59:21;12.03;;;8.20;;
27893;SDS011;15240;50.812;4.792;2023-07-08T05:01:48;12.07;;;8.63;;
27893;SDS011;15240;50.812;4.792;2023-07-08T05:04:15;13.07;;;9.93;;
27893;SDS011;15240;50.812;4.792;2023-07-08T05:06:42;15.33;;;10.63;;
27893;SDS011;15240;50.812;4.792;2023-07-08T05:09:08;15.47;;;9.97;;
27893;SDS011;15240;50.812;4.792;2023-07-08T05:11:34;16.27;;;10.17;;
27893;SDS011;15240;50.812;4.792;2023-07-08T05:14:01;17.50;;;11.40;;
27893;SDS011;15240;50.812;4.792;2023-07-08T05:16:28;18.23;;;11.43;;
27893;SDS011;15240;50.812;4.792;2023-07-08T05:18:54;15.53;;;11.27;;
27893;SDS011;15240;50.812;4.792;2023-07-08T05:21:20;16.17;;;11.47;;
27893;SDS011;15240;50.812;4.792;2023-07-08T05:23:47;14.90;;;11.10;;
27893;SDS011;15240;50.812;4.792;2023-07-08T05:26:16;18.63;;;12.30;;
27893;SDS011;15240;50.812;4.792;2023-07-08T05:28:42;18.13;;;11.97;;
27893;SDS011;15240;50.812;4.792;2023-07-08T05:31:08;15.10;;;11.50;;
27893;SDS011;15240;50.812;4.792;2023-07-08T05:33:34;17.37;;;12.17;;
27893;SDS011;15240;50.812;4.792;2023-07-08T05:36:00;19.83;;;12.20;;
27893;SDS011;15240;50.812;4.792;2023-07-08T05:38:27;14.53;;;11.07;;
27893;SDS011;15240;50.812;4.792;2023-07-08T05:40:54;17.70;;;11.37;;
27893;SDS011;15240;50.812;4.792;2023-07-08T05:43:20;16.93;;;12.23;;
27893;SDS011;15240;50.812;4.792;2023-07-08T05:45:46;17.57;;;11.23;;
27893;SDS011;15240;50.812;4.792;2023-07-08T05:48:12;17.50;;;11.63;;
27893;SDS011;15240;50.812;4.792;2023-07-08T05:50:39;17.23;;;11.37;;
27893;SDS011;15240;50.812;4.792;2023-07-08T05:53:05;18.70;;;13.37;;
27893;SDS011;15240;50.812;4.792;2023-07-08T05:55:32;15.40;;;11.27;;
27893;SDS011;15240;50.812;4.792;2023-07-08T05:57:58;16.13;;;10.97;;
27893;SDS011;15240;50.812;4.792;2023-07-08T06:00:24;16.93;;;11.07;;
27893;SDS011;15240;50.812;4.792;2023-07-08T06:02:50;14.67;;;11.00;;
27893;SDS011;15240;50.812;4.792;2023-07-08T06:05:16;15.10;;;10.37;;
27893;SDS011;15240;50.812;4.792;2023-07-08T06:07:42;14.70;;;9.68;;
27893;SDS011;15240;50.812;4.792;2023-07-08T06:10:09;14.85;;;9.93;;
27893;SDS011;15240;50.812;4.792;2023-07-08T06:12:35;12.98;;;9.13;;
27893;SDS011;15240;50.812;4.792;2023-07-08T06:15:01;15.45;;;9.07;;
27893;SDS011;15240;50.812;4.792;2023-07-08T06:17:27;14.68;;;9.07;;
27893;SDS011;15240;50.812;4.792;2023-07-08T06:19:53;13.88;;;9.35;;
27893;SDS011;15240;50.812;4.792;2023-07-08T06:22:22;20.13;;;9.40;;
27893;SDS011;15240;50.812;4.792;2023-07-08T06:24:48;13.52;;;8.35;;
27893;SDS011;15240;50.812;4.792;2023-07-08T06:27:14;10.90;;;8.40;;
27893;SDS011;15240;50.812;4.792;2023-07-08T06:29:40;12.43;;;8.32;;
27893;SDS011;15240;50.812;4.792;2023-07-08T06:32:06;14.23;;;8.38;;
27893;SDS011;15240;50.812;4.792;2023-07-08T06:34:32;11.20;;;7.68;;
27893;SDS011;15240;50.812;4.792;2023-07-08T06:37:02;13.45;;;8.15;;
27893;SDS011;15240;50.812;4.792;2023-07-08T06:39:28;13.10;;;8.57;;
27893;SDS011;15240;50.812;4.792;2023-07-08T06:41:54;12.10;;;8.23;;
27893;SDS011;15240;50.812;4.792;2023-07-08T06:44:20;11.90;;;8.38;;
27893;SDS011;15240;50.812;4.792;2023-07-08T06:46:46;11.13;;;7.78;;
27893;SDS011;15240;50.812;4.792;2023-07-08T06:49:12;12.65;;;7.75;;
27893;SDS011;15240;50.812;4.792;2023-07-08T06:51:39;12.93;;;7.65;;
27893;SDS011;15240;50.812;4.792;2023-07-08T06:54:05;10.40;;;7.90;;
27893;SDS011;15240;50.812;4.792;2023-07-08T06:56:40;12.45;;;8.13;;
27893;SDS011;15240;50.812;4.792;2023-07-08T06:59:06;10.82;;;8.00;;
27893;SDS011;15240;50.812;4.792;2023-07-08T07:01:33;13.35;;;7.88;;
27893;SDS011;15240;50.812;4.792;2023-07-08T07:04:08;11.23;;;7.50;;
27893;SDS011;15240;50.812;4.792;2023-07-08T07:06:44;11.35;;;8.35;;
27893;SDS011;15240;50.812;4.792;2023-07-08T07:09:13;14.90;;;7.97;;
27893;SDS011;15240;50.812;4.792;2023-07-08T07:11:40;11.20;;;8.10;;
27893;SDS011;15240;50.812;4.792;2023-07-08T07:14:06;10.93;;;7.30;;
27893;SDS011;15240;50.812;4.792;2023-07-08T07:16:36;9.95;;;7.18;;
27893;SDS011;15240;50.812;4.792;2023-07-08T07:19:02;11.20;;;7.32;;
27893;SDS011;15240;50.812;4.792;2023-07-08T07:21:28;11.70;;;8.10;;
27893;SDS011;15240;50.812;4.792;2023-07-08T07:23:54;14.13;;;7.60;;
27893;SDS011;15240;50.812;4.792;2023-07-08T07:26:20;11.60;;;7.55;;
27893;SDS011;15240;50.812;4.792;2023-07-08T07:28:46;10.80;;;7.30;;
27893;SDS011;15240;50.812;4.792;2023-07-08T07:31:12;10.88;;;7.05;;
27893;SDS011;15240;50.812;4.792;2023-07-08T07:33:42;13.05;;;7.35;;
27893;SDS011;15240;50.812;4.792;2023-07-08T07:36:08;11.60;;;7.10;;
27893;SDS011;15240;50.812;4.792;2023-07-08T07:38:34;10.45;;;6.93;;
27893;SDS011;15240;50.812;4.792;2023-07-08T07:41:00;9.27;;;6.70;;
27893;SDS011;15240;50.812;4.792;2023-07-08T07:43:31;8.90;;;6.30;;
27893;SDS011;15240;50.812;4.792;2023-07-08T07:46:01;10.38;;;6.80;;
27893;SDS011;15240;50.812;4.792;2023-07-08T07:48:45;12.60;;;6.65;;
27893;SDS011;15240;50.812;4.792;2023-07-08T07:51:17;9.57;;;6.47;;
27893;SDS011;15240;50.812;4.792;2023-07-08T07:53:43;12.85;;;6.70;;
27893;SDS011;15240;50.812;4.792;2023-07-08T07:56:10;9.63;;;6.90;;
27893;SDS011;15240;50.812;4.792;2023-07-08T07:58:36;9.00;;;6.30;;
27893;SDS011;15240;50.812;4.792;2023-07-08T08:01:02;10.60;;;6.45;;
27893;SDS011;15240;50.812;4.792;2023-07-08T08:03:28;9.63;;;6.03;;
27893;SDS011;15240;50.812;4.792;2023-07-08T08:05:54;9.65;;;6.35;;
27893;SDS011;15240;50.812;4.792;2023-07-08T08:08:21;9.38;;;5.85;;
27893;SDS011;15240;50.812;4.792;2023-07-08T08:10:47;8.85;;;6.68;;
27893;SDS011;15240;50.812;4.792;2023-07-08T08:13:14;9.75;;;6.50;;
27893;SDS011;15240;50.812;4.792;2023-07-08T08:15:40;9.07;;;6.43;;
27893;SDS011;15240;50.812;4.792;2023-07-08T08:18:06;10.15;;;6.43;;
27893;SDS011;15240;50.812;4.792;2023-07-08T08:20:32;10.35;;;6.47;;
27893;SDS011;15240;50.812;4.792;2023-07-08T08:22:58;9.13;;;6.78;;
27893;SDS011;15240;50.812;4.792;2023-07-08T08:25:24;10.23;;;6.40;;
27893;SDS011;15240;50.812;4.792;2023-07-08T08:27:50;10.75;;;6.22;;
27893;SDS011;15240;50.812;4.792;2023-07-08T08:30:17;10.38;;;6.22;;
27893;SDS011;15240;50.812;4.792;2023-07-08T08:32:43;9.88;;;6.32;;
27893;SDS011;15240;50.812;4.792;2023-07-08T08:35:09;9.30;;;6.32;;
27893;SDS011;15240;50.812;4.792;2023-07-08T08:37:36;11.48;;;6.25;;
27893;SDS011;15240;50.812;4.792;2023-07-08T08:40:02;9.85;;;6.40;;
27893;SDS011;15240;50.812;4.792;2023-07-08T08:42:44;11.07;;;6.45;;
27893;SDS011;15240;50.812;4.792;2023-07-08T08:45:15;10.10;;;6.95;;
27893;SDS011;15240;50.812;4.792;2023-07-08T08:48:04;10.60;;;6.63;;
27893;SDS011;15240;50.812;4.792;2023-07-08T08:50:34;9.82;;;6.80;;
27893;SDS011;15240;50.812;4.792;2023-07-08T08:53:03;8.10;;;6.88;;
27893;SDS011;15240;50.812;4.792;2023-07-08T08:55:31;8.57;;;6.35;;
27893;SDS011;15240;50.812;4.792;2023-07-08T08:57:59;9.35;;;6.70;;
27893;SDS011;15240;50.812;4.792;2023-07-08T09:00:42;12.43;;;6.95;;
27893;SDS011;15240;50.812;4.792;2023-07-08T09:05:36;7.85;;;6.10;;
27893;SDS011;15240;50.812;4.792;2023-07-08T09:08:04;10.48;;;6.88;;
27893;SDS011;15240;50.812;4.792;2023-07-08T09:13:24;11.93;;;7.03;;
27893;SDS011;15240;50.812;4.792;2023-07-08T09:15:57;9.45;;;6.50;;
27893;SDS011;15240;50.812;4.792;2023-07-08T09:18:26;9.32;;;6.68;;
27893;SDS011;15240;50.812;4.792;2023-07-08T09:20:53;11.82;;;7.18;;
27893;SDS011;15240;50.812;4.792;2023-07-08T09:23:29;10.23;;;7.07;;
27893;SDS011;15240;50.812;4.792;2023-07-08T09:26:01;10.07;;;6.90;;
27893;SDS011;15240;50.812;4.792;2023-07-08T09:31:03;9.10;;;6.22;;
27893;SDS011;15240;50.812;4.792;2023-07-08T09:33:30;11.35;;;6.88;;
27893;SDS011;15240;50.812;4.792;2023-07-08T09:35:57;13.70;;;7.00;;
27893;SDS011;15240;50.812;4.792;2023-07-08T09:38:23;10.00;;;6.80;;
27893;SDS011;15240;50.812;4.792;2023-07-08T09:40:49;9.95;;;6.82;;
27893;SDS011;15240;50.812;4.792;2023-07-08T09:45:47;9.45;;;7.22;;
27893;SDS011;15240;50.812;4.792;2023-07-08T09:50:58;9.40;;;6.20;;
27893;SDS011;15240;50.812;4.792;2023-07-08T09:53:25;9.43;;;7.05;;
27893;SDS011;15240;50.812;4.792;2023-07-08T09:55:52;9.77;;;7.00;;
27893;SDS011;15240;50.812;4.792;2023-07-08T09:58:21;9.98;;;7.00;;
27893;SDS011;15240;50.812;4.792;2023-07-08T10:00:51;11.63;;;6.97;;
27893;SDS011;15240;50.812;4.792;2023-07-08T10:03:20;9.23;;;6.65;;
27893;SDS011;15240;50.812;4.792;2023-07-08T10:05:51;11.15;;;7.20;;
27893;SDS011;15240;50.812;4.792;2023-07-08T10:08:22;9.43;;;6.68;;
27893;SDS011;15240;50.812;4.792;2023-07-08T10:13:41;9.75;;;6.25;;
27893;SDS011;15240;50.812;4.792;2023-07-08T10:16:28;12.65;;;6.38;;
27893;SDS011;15240;50.812;4.792;2023-07-08T10:18:57;12.18;;;6.32;;
27893;SDS011;15240;50.812;4.792;2023-07-08T10:26:32;11.18;;;6.97;;
27893;SDS011;15240;50.812;4.792;2023-07-08T10:36:49;9.25;;;6.40;;
27893;SDS011;15240;50.812;4.792;2023-07-08T10:44:45;10.00;;;6.20;;
27893;SDS011;15240;50.812;4.792;2023-07-08T10:49:53;9.75;;;6.63;;
27893;SDS011;15240;50.812;4.792;2023-07-08T10:57:36;8.73;;;6.40;;
27893;SDS011;15240;50.812;4.792;2023-07-08T11:00:10;9.40;;;6.80;;
27893;SDS011;15240;50.812;4.792;2023-07-08T11:05:19;10.10;;;6.63;;
27893;SDS011;15240;50.812;4.792;2023-07-08T11:10:16;12.07;;;6.38;;
27893;SDS011;15240;50.812;4.792;2023-07-08T11:17:49;8.68;;;6.53;;
27893;SDS011;15240;50.812;4.792;2023-07-08T11:20:20;10.60;;;6.45;;
27893;SDS011;15240;50.812;4.792;2023-07-08T11:23:22;11.38;;;6.72;;
27893;SDS011;15240;50.812;4.792;2023-07-08T11:25:40;10.05;;;6.55;;
27893;SDS011;15240;50.812;4.792;2023-07-08T11:28:06;11.40;;;6.25;;
27893;SDS011;15240;50.812;4.792;2023-07-08T11:30:38;10.55;;;6.63;;
27893;SDS011;15240;50.812;4.792;2023-07-08T11:33:09;12.25;;;6.18;;
27893;SDS011;15240;50.812;4.792;2023-07-08T11:35:43;11.40;;;6.30;;
27893;SDS011;15240;50.812;4.792;2023-07-08T11:44:41;8.73;;;5.65;;
27893;SDS011;15240;50.812;4.792;2023-07-08T11:47:16;9.27;;;6.20;;
27893;SDS011;15240;50.812;4.792;2023-07-08T11:49:42;13.15;;;6.45;;
27893;SDS011;15240;50.812;4.792;2023-07-08T11:52:13;9.57;;;5.88;;
27893;SDS011;15240;50.812;4.792;2023-07-08T11:54:43;9.73;;;5.30;;
27893;SDS011;15240;50.812;4.792;2023-07-08T12:02:51;8.70;;;5.60;;
27893;SDS011;15240;50.812;4.792;2023-07-08T12:05:18;7.82;;;5.10;;
27893;SDS011;15240;50.812;4.792;2023-07-08T12:17:12;8.48;;;5.10;;
27893;SDS011;15240;50.812;4.792;2023-07-08T12:19:39;7.63;;;5.32;;
27893;SDS011;15240;50.812;4.792;2023-07-08T12:22:07;8.10;;;5.93;;
27893;SDS011;15240;50.812;4.792;2023-07-08T12:24:34;8.88;;;5.45;;
27893;SDS011;15240;50.812;4.792;2023-07-08T12:27:04;10.20;;;5.70;;
27893;SDS011;15240;50.812;4.792;2023-07-08T12:38:26;10.60;;;5.63;;
27893;SDS011;15240;50.812;4.792;2023-07-08T12:40:53;14.98;;;5.97;;
27893;SDS011;15240;50.812;4.792;2023-07-08T12:43:19;11.52;;;5.50;;
27893;SDS011;15240;50.812;4.792;2023-07-08T12:48:49;10.95;;;5.75;;
27893;SDS011;15240;50.812;4.792;2023-07-08T12:51:19;9.57;;;4.93;;
27893;SDS011;15240;50.812;4.792;2023-07-08T12:53:48;7.70;;;4.90;;
27893;SDS011;15240;50.812;4.792;2023-07-08T12:56:15;9.00;;;4.95;;
27893;SDS011;15240;50.812;4.792;2023-07-08T12:58:43;7.50;;;4.68;;
27893;SDS011;15240;50.812;4.792;2023-07-08T13:10:01;5.15;;;3.47;;
27893;SDS011;15240;50.812;4.792;2023-07-08T13:12:28;8.25;;;3.28;;
27893;SDS011;15240;50.812;4.792;2023-07-08T13:14:54;8.65;;;3.00;;
27893;SDS011;15240;50.812;4.792;2023-07-08T13:17:21;5.97;;;3.30;;
27893;SDS011;15240;50.812;4.792;2023-07-08T13:19:47;7.10;;;3.25;;
27893;SDS011;15240;50.812;4.792;2023-07-08T13:22:15;5.18;;;3.13;;
27893;SDS011;15240;50.812;4.792;2023-07-08T13:24:41;6.18;;;3.40;;
27893;SDS011;15240;50.812;4.792;2023-07-08T13:27:12;9.45;;;3.58;;
27893;SDS011;15240;50.812;4.792;2023-07-08T13:29:38;6.13;;;3.53;;
27893;SDS011;15240;50.812;4.792;2023-07-08T13:32:05;9.32;;;3.45;;
27893;SDS011;15240;50.812;4.792;2023-07-08T13:34:32;6.63;;;3.28;;
27893;SDS011;15240;50.812;4.792;2023-07-08T13:36:59;6.32;;;3.28;;
27893;SDS011;15240;50.812;4.792;2023-07-08T13:39:27;8.65;;;4.05;;
27893;SDS011;15240;50.812;4.792;2023-07-08T13:41:53;9.98;;;4.30;;
27893;SDS011;15240;50.812;4.792;2023-07-08T13:44:20;8.32;;;4.00;;
27893;SDS011;15240;50.812;4.792;2023-07-08T13:46:51;8.75;;;3.88;;
27893;SDS011;15240;50.812;4.792;2023-07-08T13:49:25;5.57;;;4.00;;
27893;SDS011;15240;50.812;4.792;2023-07-08T13:52:04;8.55;;;3.97;;
27893;SDS011;15240;50.812;4.792;2023-07-08T13:54:34;7.10;;;3.70;;
27893;SDS011;15240;50.812;4.792;2023-07-08T13:57:01;7.82;;;4.63;;
27893;SDS011;15240;50.812;4.792;2023-07-08T13:59:27;6.82;;;4.20;;
27893;SDS011;15240;50.812;4.792;2023-07-08T14:01:54;8.38;;;3.92;;
27893;SDS011;15240;50.812;4.792;2023-07-08T14:04:30;6.00;;;4.05;;
27893;SDS011;15240;50.812;4.792;2023-07-08T14:06:58;6.28;;;3.80;;
27893;SDS011;15240;50.812;4.792;2023-07-08T14:09:24;9.98;;;4.32;;
27893;SDS011;15240;50.812;4.792;2023-07-08T14:11:50;9.88;;;4.22;;
27893;SDS011;15240;50.812;4.792;2023-07-08T14:14:16;11.05;;;3.92;;
27893;SDS011;15240;50.812;4.792;2023-07-08T14:16:48;7.90;;;3.92;;
27893;SDS011;15240;50.812;4.792;2023-07-08T14:19:36;9.18;;;4.10;;
27893;SDS011;15240;50.812;4.792;2023-07-08T14:22:19;9.85;;;4.30;;
27893;SDS011;15240;50.812;4.792;2023-07-08T14:24:45;6.47;;;4.03;;
27893;SDS011;15240;50.812;4.792;2023-07-08T14:27:11;7.35;;;4.00;;
27893;SDS011;15240;50.812;4.792;2023-07-08T14:29:42;6.53;;;3.72;;
27893;SDS011;15240;50.812;4.792;2023-07-08T14:32:14;7.60;;;3.45;;
27893;SDS011;15240;50.812;4.792;2023-07-08T14:34:41;7.93;;;3.47;;
27893;SDS011;15240;50.812;4.792;2023-07-08T14:37:14;8.88;;;3.95;;
27893;SDS011;15240;50.812;4.792;2023-07-08T14:39:41;7.43;;;4.15;;
27893;SDS011;15240;50.812;4.792;2023-07-08T14:42:08;6.22;;;4.00;;
27893;SDS011;15240;50.812;4.792;2023-07-08T14:44:36;8.25;;;3.88;;
27893;SDS011;15240;50.812;4.792;2023-07-08T14:47:04;8.35;;;4.18;;
27893;SDS011;15240;50.812;4.792;2023-07-08T14:49:31;6.82;;;4.10;;
27893;SDS011;15240;50.812;4.792;2023-07-08T14:51:57;6.97;;;3.72;;
27893;SDS011;15240;50.812;4.792;2023-07-08T14:54:23;6.97;;;4.20;;
27893;SDS011;15240;50.812;4.792;2023-07-08T14:56:49;7.70;;;4.00;;
27893;SDS011;15240;50.812;4.792;2023-07-08T14:59:17;8.10;;;4.03;;
27893;SDS011;15240;50.812;4.792;2023-07-08T15:01:43;6.85;;;4.15;;
27893;SDS011;15240;50.812;4.792;2023-07-08T15:04:13;5.65;;;3.80;;
27893;SDS011;15240;50.812;4.792;2023-07-08T15:06:40;7.97;;;4.22;;
27893;SDS011;15240;50.812;4.792;2023-07-08T15:09:07;7.93;;;4.38;;
27893;SDS011;15240;50.812;4.792;2023-07-08T15:11:33;7.18;;;4.30;;
27893;SDS011;15240;50.812;4.792;2023-07-08T15:14:00;6.57;;;4.63;;
27893;SDS011;15240;50.812;4.792;2023-07-08T15:16:27;7.68;;;4.63;;
27893;SDS011;15240;50.812;4.792;2023-07-08T15:18:53;7.22;;;4.80;;
27893;SDS011;15240;50.812;4.792;2023-07-08T15:21:20;5.78;;;4.50;;
27893;SDS011;15240;50.812;4.792;2023-07-08T15:23:46;7.30;;;4.72;;
27893;SDS011;15240;50.812;4.792;2023-07-08T15:26:12;8.85;;;5.15;;
27893;SDS011;15240;50.812;4.792;2023-07-08T15:28:43;9.38;;;5.10;;
27893;SDS011;15240;50.812;4.792;2023-07-08T15:31:13;9.25;;;4.80;;
27893;SDS011;15240;50.812;4.792;2023-07-08T15:33:39;10.55;;;4.70;;
27893;SDS011;15240;50.812;4.792;2023-07-08T15:36:06;9.30;;;4.82;;
27893;SDS011;15240;50.812;4.792;2023-07-08T15:38:32;9.13;;;4.72;;
27893;SDS011;15240;50.812;4.792;2023-07-08T15:40:58;9.40;;;4.88;;
27893;SDS011;15240;50.812;4.792;2023-07-08T15:43:24;8.20;;;4.43;;
27893;SDS011;15240;50.812;4.792;2023-07-08T15:45:50;11.32;;;5.28;;
27893;SDS011;15240;50.812;4.792;2023-07-08T15:48:17;8.50;;;4.85;;
27893;SDS011;15240;50.812;4.792;2023-07-08T15:50:43;9.73;;;4.80;;
27893;SDS011;15240;50.812;4.792;2023-07-08T15:53:09;11.55;;;4.93;;
27893;SDS011;15240;50.812;4.792;2023-07-08T15:55:37;6.97;;;4.68;;
27893;SDS011;15240;50.812;4.792;2023-07-08T15:58:05;10.50;;;4.85;;
27893;SDS011;15240;50.812;4.792;2023-07-08T16:00:33;7.90;;;4.90;;
27893;SDS011;15240;50.812;4.792;2023-07-08T16:03:00;8.85;;;5.43;;
27893;SDS011;15240;50.812;4.792;2023-07-08T16:05:27;8.18;;;5.15;;
27893;SDS011;15240;50.812;4.792;2023-07-08T16:07:54;9.13;;;5.15;;
27893;SDS011;15240;50.812;4.792;2023-07-08T16:10:20;7.68;;;5.32;;
27893;SDS011;15240;50.812;4.792;2023-07-08T16:12:50;12.10;;;5.47;;
27893;SDS011;15240;50.812;4.792;2023-07-08T16:15:18;8.18;;;4.95;;
27893;SDS011;15240;50.812;4.792;2023-07-08T16:17:44;11.77;;;5.53;;
27893;SDS011;15240;50.812;4.792;2023-07-08T16:20:21;6.80;;;4.72;;
27893;SDS011;15240;50.812;4.792;2023-07-08T16:22:47;10.85;;;4.53;;
27893;SDS011;15240;50.812;4.792;2023-07-08T16:25:14;7.00;;;4.85;;